Time;durP1;ratioP1;P1;durP2;ratioP2;P2;SDS_P1;SDS_P2;PMS_P1;PMS_P2;Temp;Humidity;BMP_temperature;BMP_pressure;BME280_temperature;BME280_humidity;BME280_pressure;Samples;Min_cycle;Max_cycle;Signal;HPM_P1;HPM_P2
2021/08/07 00:02:04;;;;;;;6.40;2.20;;;20.20;99.90;;;;;;4949234;28;20051;-67
2021/08/07 00:05:08;;;;;;;7.78;2.45;;;20.20;99.90;;;;;;4954441;28;20039;-66
2021/08/07 00:08:13;;;;;;;8.25;2.53;;;20.20;99.90;;;;;;4968267;28;20050;-68
2021/08/07 00:11:17;;;;;;;6.88;2.28;;;20.30;99.90;;;;;;4955462;28;20046;-67
2021/08/07 00:14:23;;;;;;;5.15;2.38;;;20.30;99.90;;;;;;4952202;29;20062;-67
2021/08/07 00:17:27;;;;;;;8.90;2.78;;;20.40;99.90;;;;;;4951507;29;20046;-66
2021/08/07 00:20:30;;;;;;;8.88;2.22;;;20.50;99.90;;;;;;4960499;28;20046;-67
2021/08/07 00:23:34;;;;;;;3.63;2.00;;;20.50;99.90;;;;;;4970667;28;20050;-67
2021/08/07 00:26:40;;;;;;;4.18;1.95;;;20.60;99.90;;;;;;4970915;28;20038;-67
2021/08/07 00:29:43;;;;;;;4.05;2.25;;;20.70;99.90;;;;;;4970279;28;20050;-67
2021/08/07 00:32:48;;;;;;;6.15;2.00;;;20.70;99.90;;;;;;4970015;28;20045;-67
2021/08/07 00:35:54;;;;;;;6.68;2.35;;;20.70;99.90;;;;;;4970028;28;20034;-67
2021/08/07 00:39:00;;;;;;;4.70;2.25;;;20.70;99.90;;;;;;4930961;29;20055;-67
2021/08/07 00:42:04;;;;;;;7.65;2.97;;;20.50;99.90;;;;;;4931072;29;20063;-67
2021/08/07 00:45:09;;;;;;;3.95;2.55;;;19.70;99.90;;;;;;4932640;29;20505;-67
2021/08/07 00:48:22;;;;;;;5.95;2.55;;;19.50;99.90;;;;;;4941270;29;20043;-67
2021/08/07 00:51:31;;;;;;;8.60;3.28;;;19.20;99.90;;;;;;4942409;29;20039;-67
2021/08/07 00:54:42;;;;;;;5.88;2.75;;;18.70;99.90;;;;;;4931339;29;20525;-67
2021/08/07 00:57:48;;;;;;;8.80;3.13;;;18.30;99.90;;;;;;4945365;28;20043;-66
2021/08/07 01:00:56;;;;;;;5.80;2.92;;;18.10;99.90;;;;;;4962242;28;20414;-67
2021/08/07 01:04:07;;;;;;;7.47;3.40;;;18.10;99.90;;;;;;4961663;28;20050;-66
2021/08/07 01:07:37;;;;;;;10.95;2.78;;;18.10;99.90;;;;;;4957761;28;20070;-67
2021/08/07 01:11:05;;;;;;;7.05;2.90;;;18.20;99.90;;;;;;4973074;28;20049;-67
2021/08/07 01:14:11;;;;;;;6.20;3.10;;;18.20;99.90;;;;;;4974097;28;20062;-67
2021/08/07 01:17:24;;;;;;;6.55;2.90;;;18.30;99.90;;;;;;4957438;28;20054;-67
2021/08/07 01:20:47;;;;;;;6.40;2.90;;;18.30;99.90;;;;;;4953734;29;20054;-66
2021/08/07 01:24:21;;;;;;;5.20;2.67;;;18.50;99.90;;;;;;4964958;28;20046;-66
2021/08/07 01:27:35;;;;;;;8.55;2.75;;;18.60;99.90;;;;;;4954477;28;20047;-66
2021/08/07 01:31:03;;;;;;;6.95;2.75;;;18.70;99.90;;;;;;4964530;28;20046;-66
2021/08/07 01:34:08;;;;;;;8.25;3.10;;;18.80;99.90;;;;;;4967593;28;20050;-67
2021/08/07 01:37:23;;;;;;;6.05;3.28;;;18.80;99.90;;;;;;4972766;28;20508;-67
2021/08/07 01:41:03;;;;;;;5.07;2.42;;;18.80;99.90;;;;;;4973435;28;20046;-66
2021/08/07 01:44:10;;;;;;;7.78;2.80;;;18.70;99.90;;;;;;4972551;28;20054;-67
2021/08/07 01:47:33;;;;;;;3.88;2.38;;;18.70;99.90;;;;;;4972411;28;20050;-67
2021/08/07 01:50:44;;;;;;;5.67;2.43;;;18.70;99.90;;;;;;4972223;28;20054;-67
2021/08/07 01:53:50;;;;;;;7.67;2.60;;;18.70;99.90;;;;;;4972596;28;20054;-67
2021/08/07 01:56:57;;;;;;;9.70;2.83;;;18.80;99.90;;;;;;4961589;28;20394;-67
2021/08/07 02:00:05;;;;;;;5.47;2.60;;;18.80;99.90;;;;;;4971942;28;20046;-67
2021/08/07 02:03:18;;;;;;;5.20;2.20;;;18.90;99.90;;;;;;4972989;28;20050;-67
2021/08/07 02:06:24;;;;;;;6.28;2.60;;;18.90;99.90;;;;;;4966424;28;20042;-67
2021/08/07 02:09:28;;;;;;;5.75;2.85;;;18.80;99.90;;;;;;4951911;28;20058;-67
2021/08/07 02:12:37;;;;;;;6.93;2.22;;;18.80;99.90;;;;;;4963568;28;20050;-66
2021/08/07 02:15:50;;;;;;;3.40;2.40;;;18.60;99.90;;;;;;4963970;28;20047;-67
2021/08/07 02:19:01;;;;;;;4.90;2.70;;;18.50;99.90;;;;;;4952815;29;20038;-67
2021/08/07 02:22:12;;;;;;;8.32;2.75;;;18.40;99.90;;;;;;4962970;28;20397;-67
2021/08/07 02:25:21;;;;;;;7.18;2.95;;;18.40;99.90;;;;;;4951544;29;20042;-67
2021/08/07 02:28:35;;;;;;;5.43;2.50;;;18.30;99.90;;;;;;4951819;29;20046;-67
2021/08/07 02:31:45;;;;;;;3.35;2.30;;;18.30;99.90;;;;;;4963102;28;20046;-67
2021/08/07 02:34:49;;;;;;;7.70;2.65;;;18.30;99.90;;;;;;4953100;29;20042;-67
2021/08/07 02:38:02;;;;;;;5.85;2.53;;;18.20;99.90;;;;;;4951913;29;20042;-67
2021/08/07 02:41:07;;;;;;;6.13;3.53;;;18.20;99.90;;;;;;4963240;28;20046;-67
2021/08/07 02:44:18;;;;;;;6.97;2.67;;;18.20;99.90;;;;;;4951959;29;20045;-67
2021/08/07 02:47:24;;;;;;;6.15;2.60;;;18.20;99.90;;;;;;4952207;29;20414;-67
2021/08/07 02:50:33;;;;;;;7.55;3.17;;;18.10;99.90;;;;;;4941091;29;20042;-67
2021/08/07 02:53:38;;;;;;;6.22;2.90;;;18.00;99.90;;;;;;4951583;29;20493;-67
2021/08/07 02:56:44;;;;;;;7.43;3.00;;;17.90;99.90;;;;;;4952799;29;20038;-67
2021/08/07 02:59:49;;;;;;;15.27;3.40;;;17.80;99.90;;;;;;4962405;28;20047;-67
2021/08/07 03:02:54;;;;;;;7.07;3.05;;;17.80;99.90;;;;;;4953022;29;20050;-67
2021/08/07 03:05:58;;;;;;;6.70;3.35;;;17.70;99.90;;;;;;4962736;28;20042;-67
2021/08/07 03:09:04;;;;;;;8.32;2.90;;;17.60;99.90;;;;;;4932277;29;20526;-67
2021/08/07 03:12:10;;;;;;;5.45;3.28;;;17.60;99.90;;;;;;4932928;29;20050;-67
2021/08/07 03:15:15;;;;;;;8.23;3.47;;;17.50;99.90;;;;;;4932222;29;20399;-67
2021/08/07 03:18:19;;;;;;;5.82;3.13;;;17.50;99.90;;;;;;4942952;29;20067;-67
2021/08/07 03:21:26;;;;;;;8.43;3.47;;;17.40;99.90;;;;;;4942506;28;20046;-67
2021/08/07 03:24:37;;;;;;;6.00;3.60;;;17.40;99.90;;;;;;4932169;29;20039;-66
2021/08/07 03:27:43;;;;;;;7.18;3.58;;;17.40;99.90;;;;;;4943133;29;20054;-66
2021/08/07 03:30:47;;;;;;;6.15;3.70;;;17.40;99.90;;;;;;4933619;29;20047;-67
2021/08/07 03:33:52;;;;;;;7.95;3.67;;;17.40;99.90;;;;;;4943025;29;20051;-66
2021/08/07 03:36:57;;;;;;;7.22;3.47;;;17.30;99.90;;;;;;4932918;29;20042;-66
2021/08/07 03:40:02;;;;;;;7.25;3.08;;;17.40;99.90;;;;;;4942609;29;20043;-66
2021/08/07 03:43:17;;;;;;;7.80;3.30;;;17.40;99.90;;;;;;4942940;29;20051;-66
2021/08/07 03:46:22;;;;;;;8.23;3.50;;;17.40;99.90;;;;;;4932966;29;20402;-67
2021/08/07 03:49:29;;;;;;;9.90;3.28;;;17.40;99.90;;;;;;4942585;29;20051;-66
2021/08/07 03:52:34;;;;;;;9.25;3.42;;;17.30;99.90;;;;;;4932601;29;20043;-66
2021/08/07 03:55:39;;;;;;;8.27;3.60;;;17.30;99.90;;;;;;4942525;29;20055;-67
2021/08/07 03:58:45;;;;;;;11.00;3.80;;;17.20;99.90;;;;;;4942723;29;20051;-67
2021/08/07 04:01:52;;;;;;;11.68;3.47;;;17.20;99.90;;;;;;4942870;29;20051;-66
2021/08/07 04:05:01;;;;;;;8.65;3.50;;;17.10;99.90;;;;;;4950627;29;20050;-66
2021/08/07 04:08:11;;;;;;;7.80;3.90;;;17.10;99.90;;;;;;4961650;28;20050;-66
2021/08/07 04:11:20;;;;;;;7.25;3.80;;;17.00;99.90;;;;;;4950799;29;20055;-66
2021/08/07 04:14:36;;;;;;;8.02;4.10;;;16.90;99.90;;;;;;4951517;29;20039;-66
2021/08/07 04:17:40;;;;;;;8.48;3.60;;;16.90;99.90;;;;;;4951183;29;20042;-67
2021/08/07 04:20:46;;;;;;;5.72;3.63;;;16.90;99.90;;;;;;4962160;28;20056;-67
2021/08/07 04:23:51;;;;;;;7.22;3.47;;;16.80;99.90;;;;;;4961432;28;20054;-67
2021/08/07 04:26:57;;;;;;;5.93;3.90;;;16.80;99.90;;;;;;4951171;29;20046;-67
2021/08/07 04:30:04;;;;;;;6.90;3.70;;;16.80;99.90;;;;;;4950554;29;20113;-67
2021/08/07 04:33:10;;;;;;;8.88;3.88;;;16.90;99.90;;;;;;4953509;28;20389;-67
2021/08/07 04:36:21;;;;;;;6.03;3.88;;;16.90;99.90;;;;;;4954482;29;20038;-66
2021/08/07 04:39:25;;;;;;;6.15;3.53;;;17.00;99.90;;;;;;4954355;29;20050;-67
2021/08/07 04:42:34;;;;;;;5.38;2.92;;;17.10;99.90;;;;;;4954317;29;20054;-67
2021/08/07 04:45:39;;;;;;;5.80;3.50;;;17.20;99.90;;;;;;4954302;28;20046;-67
2021/08/07 04:48:45;;;;;;;8.60;2.85;;;17.30;99.90;;;;;;4953887;29;20517;-67
2021/08/07 04:51:53;;;;;;;5.20;3.40;;;17.40;99.90;;;;;;4953900;29;20497;-67
2021/08/07 04:54:58;;;;;;;9.93;3.63;;;17.60;99.90;;;;;;4953978;29;20054;-67
2021/08/07 04:58:02;;;;;;;4.85;2.80;;;17.70;99.90;;;;;;4954660;29;20050;-67
2021/08/07 05:01:07;;;;;;;6.07;3.20;;;17.70;99.90;;;;;;4953989;29;20065;-67
2021/08/07 05:04:12;;;;;;;8.73;3.15;;;17.90;99.90;;;;;;4954200;29;20501;-67
2021/08/07 05:07:19;;;;;;;5.82;2.53;;;17.90;99.90;;;;;;4959891;28;20505;-67
2021/08/07 05:10:24;;;;;;;6.72;2.92;;;18.80;99.90;;;;;;4972843;28;20389;-66
2021/08/07 05:13:28;;;;;;;5.30;2.55;;;21.50;99.90;;;;;;4973581;28;20069;-67
2021/08/07 05:16:33;;;;;;;5.00;2.40;;;23.80;99.90;;;;;;4973468;28;20225;-67
2021/08/07 05:19:37;;;;;;;6.80;2.33;;;25.30;99.90;;;;;;4973054;28;20115;-67
2021/08/07 05:22:41;;;;;;;7.05;2.53;;;26.10;99.90;;;;;;4972569;28;20501;-67
2021/08/07 05:25:46;;;;;;;5.43;1.95;;;26.30;99.30;;;;;;4973279;28;20057;-67
2021/08/07 05:28:50;;;;;;;7.60;2.65;;;26.70;99.40;;;;;;4972841;28;20244;-67
2021/08/07 05:31:54;;;;;;;7.63;2.85;;;27.20;98.30;;;;;;4959851;28;20073;-67
2021/08/07 05:35:00;;;;;;;5.57;2.53;;;27.90;97.00;;;;;;4944785;29;20124;-68
2021/08/07 05:38:04;;;;;;;3.15;1.90;;;28.60;96.00;;;;;;4952548;29;20042;-68
2021/08/07 05:41:10;;;;;;;7.95;2.45;;;27.40;96.20;;;;;;4953018;29;20054;-67
2021/08/07 05:44:20;;;;;;;8.43;2.38;;;28.60;95.20;;;;;;4951936;28;20046;-67
2021/08/07 05:47:24;;;;;;;4.72;2.30;;;25.10;97.60;;;;;;4952278;28;20042;-67
2021/08/07 05:50:31;;;;;;;6.15;2.20;;;26.80;96.90;;;;;;4933629;29;20050;-66
2021/08/07 05:53:35;;;;;;;5.43;2.20;;;25.30;97.90;;;;;;4934267;29;20051;-67
2021/08/07 05:56:39;;;;;;;3.47;2.05;;;25.70;97.50;;;;;;4944425;29;20043;-67
2021/08/07 05:59:44;;;;;;;5.22;2.00;;;26.20;97.10;;;;;;4944116;29;20047;-67
2021/08/07 06:02:48;;;;;;;5.38;2.30;;;25.90;97.20;;;;;;4963071;28;20069;-67
2021/08/07 06:06:02;;;;;;;3.53;1.98;;;25.90;97.50;;;;;;4967185;28;20038;-67
2021/08/07 06:09:06;;;;;;;3.85;2.25;;;26.40;96.90;;;;;;4966415;28;20050;-67
2021/08/07 06:12:11;;;;;;;6.95;2.13;;;26.70;96.40;;;;;;4960114;28;20058;-68
2021/08/07 06:15:16;;;;;;;3.78;2.10;;;25.90;96.50;;;;;;4966577;28;20085;-67
2021/08/07 06:18:23;;;;;;;3.85;2.05;;;26.10;96.50;;;;;;4967233;28;20115;-67
2021/08/07 06:21:29;;;;;;;4.28;2.05;;;27.30;95.70;;;;;;4967974;28;20054;-67
2021/08/07 06:24:34;;;;;;;8.00;2.53;;;27.90;95.10;;;;;;4967752;28;20650;-67
2021/08/07 06:27:39;;;;;;;4.68;2.22;;;29.20;93.20;;;;;;4970347;28;20409;-67
2021/08/07 06:30:46;;;;;;;5.13;2.00;;;29.40;92.50;;;;;;4970196;28;20205;-68
2021/08/07 06:33:55;;;;;;;6.63;1.85;;;30.10;91.90;;;;;;4970774;28;20050;-67
2021/08/07 06:37:00;;;;;;;4.30;2.25;;;29.20;92.20;;;;;;4970492;28;20050;-67
2021/08/07 06:40:05;;;;;;;4.70;1.80;;;27.90;92.40;;;;;;4981242;28;20038;-68
2021/08/07 06:43:09;;;;;;;4.38;2.13;;;28.80;92.10;;;;;;4969847;28;20049;-68
2021/08/07 06:46:33;;;;;;;5.93;2.10;;;29.10;91.80;;;;;;4949283;28;20434;-68
2021/08/07 06:49:39;;;;;;;9.70;2.50;;;28.80;91.40;;;;;;4963310;28;20042;-68
2021/08/07 06:52:44;;;;;;;5.43;2.10;;;29.20;91.50;;;;;;4968322;28;20046;-67
2021/08/07 06:55:48;;;;;;;4.70;2.60;;;29.70;90.80;;;;;;4960756;28;20407;-67
2021/08/07 06:58:53;;;;;;;6.05;2.08;;;30.30;90.70;;;;;;4956597;28;20046;-68
2021/08/07 07:01:58;;;;;;;3.88;1.67;;;31.50;89.70;;;;;;4979955;28;20393;-68
2021/08/07 07:05:04;;;;;;;4.13;1.80;;;31.30;88.30;;;;;;4967093;28;20042;-68
2021/08/07 07:08:08;;;;;;;6.25;1.88;;;31.90;87.80;;;;;;4960597;28;20038;-68
2021/08/07 07:11:15;;;;;;;9.70;1.85;;;31.00;88.60;;;;;;4959301;28;20115;-68
2021/08/07 07:14:19;;;;;;;2.95;1.77;;;32.30;86.90;;;;;;4961337;28;20046;-68
2021/08/07 07:17:25;;;;;;;4.65;1.95;;;30.80;85.90;;;;;;4964596;28;20038;-68
2021/08/07 07:20:29;;;;;;;6.38;2.33;;;30.20;88.80;;;;;;4957070;28;20053;-68
2021/08/07 07:23:34;;;;;;;4.50;1.80;;;31.70;86.80;;;;;;4966048;28;20053;-68
2021/08/07 07:26:38;;;;;;;8.30;2.22;;;32.80;85.30;;;;;;4958880;28;20046;-68
2021/08/07 07:29:48;;;;;;;8.50;1.90;;;32.40;84.70;;;;;;4963309;28;20055;-68
2021/08/07 07:32:53;;;;;;;9.15;2.10;;;33.40;83.30;;;;;;4966956;28;20054;-69
2021/08/07 07:35:57;;;;;;;4.47;1.73;;;33.30;83.00;;;;;;4956528;28;20405;-68
2021/08/07 07:39:02;;;;;;;4.65;1.85;;;31.60;85.10;;;;;;4962145;28;20038;-68
2021/08/07 07:42:08;;;;;;;4.80;1.70;;;33.20;83.10;;;;;;4952150;28;20050;-68
2021/08/07 07:45:12;;;;;;;3.85;1.77;;;31.70;83.70;;;;;;4950546;29;20050;-68
2021/08/07 07:48:20;;;;;;;4.18;1.80;;;31.50;85.10;;;;;;4944187;28;20427;-68
2021/08/07 07:55:51;;;;;;;3.17;1.92;;;31.70;84.70;;;;;;5064884;28;20416;-54
2021/08/07 07:58:55;;;;;;;5.90;2.25;;;32.60;85.10;;;;;;5052447;28;20598;-58
2021/08/07 08:02:02;;;;;;;4.03;2.30;;;32.30;84.70;;;;;;5045331;28;20037;-58
2021/08/07 08:05:07;;;;;;;5.32;1.85;;;34.00;82.50;;;;;;5036436;28;20034;-57
2021/08/07 08:08:12;;;;;;;3.78;1.90;;;33.80;83.00;;;;;;5043955;28;20388;-57
2021/08/07 08:11:17;;;;;;;9.75;1.95;;;34.00;82.10;;;;;;5039409;28;20041;-55
2021/08/07 08:14:21;;;;;;;4.05;1.83;;;34.00;81.60;;;;;;5025817;28;20041;-57
2021/08/07 08:17:25;;;;;;;4.03;1.75;;;35.10;80.80;;;;;;5035234;28;20033;-56
2021/08/07 08:20:30;;;;;;;2.75;1.52;;;34.00;81.10;;;;;;5043011;28;20038;-58
2021/08/07 08:23:35;;;;;;;4.60;1.80;;;36.00;79.30;;;;;;5026368;28;20041;-58
2021/08/07 08:26:40;;;;;;;7.97;1.92;;;34.70;79.90;;;;;;5025427;28;20519;-55
2021/08/07 08:29:46;;;;;;;6.75;1.70;;;35.30;78.50;;;;;;5026316;28;20042;-58
2021/08/07 08:32:51;;;;;;;9.00;2.17;;;36.20;78.10;;;;;;5029042;28;20053;-56
2021/08/07 08:35:56;;;;;;;5.20;1.85;;;34.10;79.80;;;;;;5025374;28;20034;-56
2021/08/07 08:39:01;;;;;;;3.20;1.63;;;32.50;81.30;;;;;;5044191;28;20054;-58
2021/08/07 08:42:07;;;;;;;3.80;1.80;;;33.90;77.80;;;;;;5038789;28;20029;-60
2021/08/07 08:45:12;;;;;;;6.75;1.85;;;34.70;78.60;;;;;;5059518;28;20053;-60
2021/08/07 08:48:18;;;;;;;7.80;1.90;;;34.00;76.60;;;;;;5063681;28;20040;-57
2021/08/07 08:51:26;;;;;;;5.20;2.00;;;32.40;80.60;;;;;;5052036;28;20037;-58
2021/08/07 08:54:30;;;;;;;7.35;1.80;;;32.50;81.40;;;;;;5024561;28;20045;-58
2021/08/07 08:57:37;;;;;;;6.63;1.63;;;32.50;79.00;;;;;;5024130;28;20037;-58
2021/08/07 09:00:42;;;;;;;5.97;1.55;;;34.00;78.00;;;;;;5032627;28;20037;-59
2021/08/07 09:03:48;;;;;;;2.63;1.42;;;36.00;74.50;;;;;;5044232;28;20041;-57
2021/08/07 09:06:52;;;;;;;5.00;1.60;;;37.50;73.10;;;;;;5033316;28;20033;-56
2021/08/07 09:09:58;;;;;;;3.50;1.60;;;32.90;75.70;;;;;;5031265;28;20041;-55
2021/08/07 09:13:06;;;;;;;5.22;1.52;;;33.60;77.70;;;;;;5031393;28;20049;-55
2021/08/07 09:16:12;;;;;;;3.30;1.52;;;36.10;73.10;;;;;;5032308;28;20041;-58
2021/08/07 09:19:16;;;;;;;4.45;1.52;;;37.00;72.10;;;;;;5031569;28;20045;-60
2021/08/07 09:22:22;;;;;;;4.55;1.42;;;37.70;71.10;;;;;;5031339;28;20046;-54
2021/08/07 09:25:37;;;;;;;6.50;1.98;;;37.90;69.80;;;;;;5031322;28;20037;-56
2021/08/07 09:28:43;;;;;;;6.05;1.70;;;37.10;71.30;;;;;;5030500;28;20037;-58
2021/08/07 09:31:58;;;;;;;3.55;1.50;;;36.10;71.30;;;;;;5030999;28;20033;-54
2021/08/07 09:35:08;;;;;;;5.97;1.98;;;34.60;70.90;;;;;;5030897;28;20037;-56
2021/08/07 09:38:24;;;;;;;5.20;1.80;;;35.00;72.70;;;;;;5030861;28;20393;-61
2021/08/07 09:42:00;;;;;;;7.05;1.83;;;33.30;75.10;;;;;;5031361;28;20025;-58
2021/08/07 09:45:09;;;;;;;5.75;1.40;;;35.90;73.10;;;;;;5031121;28;20033;-59
2021/08/07 09:48:16;;;;;;;6.55;2.00;;;38.30;70.00;;;;;;5030871;28;20041;-59
2021/08/07 09:51:25;;;;;;;4.75;2.00;;;33.40;72.70;;;;;;5030974;28;20045;-56
2021/08/07 09:54:42;;;;;;;5.85;1.90;;;34.80;74.20;;;;;;5031081;28;20046;-59
2021/08/07 09:58:01;;;;;;;5.22;1.35;;;37.40;70.50;;;;;;5030512;28;20029;-60
2021/08/07 10:01:06;;;;;;;6.28;1.75;;;37.10;69.20;;;;;;5030438;28;20041;-60
2021/08/07 10:04:12;;;;;;;4.50;1.80;;;38.00;69.00;;;;;;5030566;28;20352;-58
2021/08/07 10:07:19;;;;;;;2.63;1.35;;;38.90;68.20;;;;;;5030441;28;20037;-57
2021/08/07 10:10:30;;;;;;;3.60;1.80;;;40.30;66.90;;;;;;5030001;28;20049;-59
2021/08/07 10:13:40;;;;;;;5.68;1.58;;;41.40;65.10;;;;;;5030604;28;20393;-59
2021/08/07 10:16:56;;;;;;;2.95;1.45;;;38.80;66.70;;;;;;5030081;28;20409;-57
2021/08/07 10:20:00;;;;;;;9.50;1.63;;;37.10;67.90;;;;;;5029631;28;20037;-59
2021/08/07 10:23:08;;;;;;;4.65;1.65;;;35.90;69.00;;;;;;5030244;28;20030;-61
2021/08/07 10:26:19;;;;;;;5.40;1.77;;;36.40;68.30;;;;;;5030944;28;20049;-57
2021/08/07 10:29:44;;;;;;;6.20;2.00;;;37.00;68.30;;;;;;5029560;28;20041;-59
2021/08/07 10:32:49;;;;;;;3.83;1.80;;;34.40;71.20;;;;;;5029913;28;20037;-59
2021/08/07 10:35:54;;;;;;;7.47;1.90;;;34.00;72.10;;;;;;5029737;28;20034;-59
2021/08/07 10:39:01;;;;;;;7.55;1.60;;;34.30;71.00;;;;;;5029508;28;20510;-58
2021/08/07 10:42:07;;;;;;;7.95;1.90;;;34.80;71.30;;;;;;5029781;28;20038;-61
2021/08/07 10:45:13;;;;;;;6.43;1.95;;;35.90;70.10;;;;;;5029738;28;20045;-60
2021/08/07 10:48:47;;;;;;;4.13;1.80;;;34.90;71.60;;;;;;5029353;28;20049;-60
2021/08/07 10:51:55;;;;;;;7.43;2.05;;;35.90;71.60;;;;;;5029249;28;20044;-57
2021/08/07 10:54:58;;;;;;;5.30;1.80;;;35.90;69.20;;;;;;5030529;28;20056;-57
2021/08/07 10:58:02;;;;;;;6.97;2.10;;;35.70;69.80;;;;;;5030776;28;20033;-55
2021/08/07 11:01:47;;;;;;;6.18;2.20;;;35.00;71.50;;;;;;5029273;28;20041;-58
2021/08/07 11:04:52;;;;;;;7.40;2.40;;;34.30;70.90;;;;;;5030156;28;20062;-58
2021/08/07 11:08:16;;;;;;;5.55;1.92;;;34.00;73.00;;;;;;5030019;28;20053;-60
2021/08/07 11:11:30;;;;;;;6.03;1.92;;;34.80;73.30;;;;;;5029657;28;20046;-59
2021/08/07 11:14:34;;;;;;;6.60;2.40;;;37.10;70.10;;;;;;5030047;28;20397;-59
2021/08/07 11:17:44;;;;;;;5.30;1.88;;;35.80;70.80;;;;;;5030152;28;20052;-61
2021/08/07 11:20:48;;;;;;;7.27;2.27;;;36.60;70.90;;;;;;5029685;28;20393;-57
2021/08/07 11:23:52;;;;;;;5.57;2.13;;;36.10;70.50;;;;;;5029878;28;20283;-55
2021/08/07 11:26:56;;;;;;;5.03;1.90;;;36.30;69.70;;;;;;5029800;28;20507;-55
2021/08/07 11:30:19;;;;;;;4.35;2.08;;;34.40;71.80;;;;;;5028988;28;20045;-60
2021/08/07 11:33:25;;;;;;;7.65;2.28;;;33.30;73.90;;;;;;5028830;28;20037;-58
2021/08/07 11:36:31;;;;;;;9.00;1.90;;;34.40;73.20;;;;;;5029764;28;20037;-57
2021/08/07 11:40:03;;;;;;;10.00;2.33;;;35.10;72.10;;;;;;5028668;28;20041;-56
2021/08/07 11:43:18;;;;;;;9.90;2.58;;;34.80;71.30;;;;;;5029397;28;20044;-59
2021/08/07 11:46:33;;;;;;;6.65;2.50;;;33.70;74.90;;;;;;5029442;28;20041;-57
2021/08/07 11:49:37;;;;;;;6.63;2.33;;;36.50;71.50;;;;;;5029350;28;20046;-58
2021/08/07 11:52:42;;;;;;;5.10;2.10;;;37.10;70.00;;;;;;5029134;28;20040;-58
2021/08/07 11:56:07;;;;;;;8.40;2.10;;;36.90;71.00;;;;;;5029474;28;20037;-60
2021/08/07 11:59:28;;;;;;;7.25;2.10;;;39.10;68.80;;;;;;5029361;28;20044;-60
2021/08/07 12:02:32;;;;;;;8.57;1.92;;;38.30;67.90;;;;;;5008374;28;20320;-59
2021/08/07 12:06:00;;;;;;;4.25;1.80;;;39.60;67.30;;;;;;5008664;28;20041;-59
2021/08/07 12:09:14;;;;;;;6.43;1.95;;;39.70;66.20;;;;;;5028929;28;20045;-59
2021/08/07 12:12:18;;;;;;;7.15;2.10;;;40.40;65.90;;;;;;5029360;28;20044;-58
2021/08/07 12:15:23;;;;;;;3.75;1.70;;;39.10;66.90;;;;;;5029293;28;20041;-55
2021/08/07 12:18:41;;;;;;;5.47;1.98;;;38.70;67.90;;;;;;5029113;28;20033;-56
2021/08/07 12:21:45;;;;;;;3.83;2.13;;;36.60;69.50;;;;;;5028827;28;20049;-60
2021/08/07 12:25:04;;;;;;;4.32;2.10;;;37.40;69.00;;;;;;5029125;28;20163;-56
2021/08/07 12:28:11;;;;;;;5.22;2.38;;;35.20;71.70;;;;;;5028818;28;20038;-57
2021/08/07 12:31:16;;;;;;;6.65;2.22;;;33.90;73.20;;;;;;5028935;28;20530;-59
2021/08/07 12:34:35;;;;;;;3.38;1.77;;;33.20;74.30;;;;;;5028794;28;20049;-56
2021/08/07 12:37:39;;;;;;;6.03;2.20;;;34.30;73.70;;;;;;5029071;28;20037;-59
2021/08/07 12:40:46;;;;;;;10.35;2.33;;;35.00;72.40;;;;;;5029294;28;20420;-60
2021/08/07 12:43:50;;;;;;;8.38;1.98;;;34.50;72.40;;;;;;5032709;28;20044;-58
2021/08/07 12:46:58;;;;;;;9.75;2.97;;;36.60;72.00;;;;;;5032677;28;20403;-58
2021/08/07 12:50:18;;;;;;;4.70;2.28;;;35.30;70.70;;;;;;5031780;28;20050;-59
2021/08/07 12:53:47;;;;;;;6.95;2.40;;;34.80;71.10;;;;;;5032897;28;20033;-57
2021/08/07 12:56:53;;;;;;;8.43;2.60;;;34.60;72.40;;;;;;5033001;28;20049;-61
2021/08/07 12:59:59;;;;;;;6.72;2.45;;;35.00;70.70;;;;;;5032500;28;20048;-60
2021/08/07 13:03:06;;;;;;;6.88;2.28;;;36.10;69.60;;;;;;5032561;28;20060;-58
2021/08/07 13:06:10;;;;;;;9.52;2.40;;;35.60;70.40;;;;;;5032710;28;20049;-58
2021/08/07 13:09:25;;;;;;;9.32;2.40;;;34.80;71.60;;;;;;5012708;28;20045;-59
2021/08/07 13:12:44;;;;;;;4.50;2.10;;;35.00;72.40;;;;;;5012695;28;20061;-55
2021/08/07 13:15:49;;;;;;;4.30;2.30;;;34.90;71.10;;;;;;5012412;28;20050;-58
2021/08/07 13:19:22;;;;;;;4.45;2.40;;;35.00;71.80;;;;;;5012457;28;20046;-59
2021/08/07 13:22:26;;;;;;;12.05;2.45;;;34.80;72.20;;;;;;5012266;28;20026;-59
2021/08/07 13:25:30;;;;;;;6.15;2.88;;;34.70;71.00;;;;;;5012408;28;20524;-59
2021/08/07 13:28:36;;;;;;;6.78;2.63;;;34.10;72.20;;;;;;5012010;28;20517;-57
2021/08/07 13:31:40;;;;;;;12.63;2.35;;;34.50;71.60;;;;;;5011859;28;20042;-59
2021/08/07 13:34:46;;;;;;;6.25;2.38;;;34.80;71.40;;;;;;5011972;28;20053;-59
2021/08/07 13:37:51;;;;;;;6.97;2.55;;;33.70;72.50;;;;;;5012412;28;20052;-58
2021/08/07 13:41:13;;;;;;;7.82;2.35;;;33.30;72.40;;;;;;5011027;28;20041;-58
2021/08/07 13:44:20;;;;;;;9.00;2.55;;;34.40;72.30;;;;;;5011994;28;20041;-56
2021/08/07 13:47:24;;;;;;;5.88;2.70;;;34.30;71.90;;;;;;5011736;28;20053;-57
2021/08/07 13:50:29;;;;;;;5.57;2.45;;;33.90;72.60;;;;;;5011130;28;20057;-56
2021/08/07 13:53:33;;;;;;;5.63;2.33;;;33.50;72.40;;;;;;5011208;28;20038;-57
2021/08/07 13:56:37;;;;;;;6.50;2.35;;;33.70;72.50;;;;;;5011385;28;20409;-55
2021/08/07 13:59:41;;;;;;;7.43;2.70;;;33.90;72.50;;;;;;5011652;28;20497;-56
2021/08/07 14:02:47;;;;;;;5.93;2.42;;;33.10;72.90;;;;;;5011134;28;20026;-59
2021/08/07 14:05:52;;;;;;;8.20;1.95;;;33.10;72.80;;;;;;5011402;28;20048;-58
2021/08/07 14:08:56;;;;;;;9.20;2.50;;;32.80;72.50;;;;;;5030976;28;20056;-56
2021/08/07 14:12:00;;;;;;;9.52;2.83;;;32.50;73.00;;;;;;5030810;28;20041;-58
2021/08/07 14:15:05;;;;;;;5.30;2.45;;;32.60;72.00;;;;;;5031189;28;20041;-59
2021/08/07 14:18:11;;;;;;;5.80;2.20;;;32.60;72.60;;;;;;5030708;28;20040;-56
2021/08/07 14:21:15;;;;;;;7.28;2.47;;;32.90;71.90;;;;;;5031145;28;20037;-59
2021/08/07 14:24:25;;;;;;;3.60;2.40;;;32.90;71.20;;;;;;5031126;28;20046;-57
2021/08/07 14:27:30;;;;;;;8.02;2.58;;;32.70;71.60;;;;;;5030160;28;20060;-60
2021/08/07 14:30:33;;;;;;;6.95;2.50;;;32.60;70.00;;;;;;5030932;28;20422;-57
2021/08/07 14:33:37;;;;;;;4.97;1.98;;;32.50;69.90;;;;;;5030366;28;20030;-58
2021/08/07 14:36:43;;;;;;;10.00;2.65;;;32.90;70.10;;;;;;5030662;28;20049;-56
2021/08/07 14:39:48;;;;;;;7.55;2.20;;;33.00;70.60;;;;;;5030737;28;20045;-59
2021/08/07 14:42:53;;;;;;;8.63;2.13;;;32.60;70.70;;;;;;5030584;28;20048;-58
2021/08/07 14:45:57;;;;;;;8.25;2.50;;;32.80;71.40;;;;;;5030510;28;20518;-58
2021/08/07 14:49:01;;;;;;;7.38;2.38;;;33.10;70.00;;;;;;5029968;28;20048;-60
2021/08/07 14:52:05;;;;;;;4.25;2.53;;;32.90;70.50;;;;;;5030536;28;20046;-59
2021/08/07 14:55:10;;;;;;;5.53;2.25;;;32.70;73.40;;;;;;5030249;28;20041;-56
2021/08/07 14:58:14;;;;;;;15.82;3.03;;;32.40;73.70;;;;;;5029822;28;20408;-57
2021/08/07 15:01:20;;;;;;;4.70;2.60;;;32.50;74.20;;;;;;5030123;28;20040;-59
2021/08/07 15:04:25;;;;;;;7.40;2.33;;;32.00;74.20;;;;;;5028748;28;20407;-59
2021/08/07 15:07:30;;;;;;;7.35;2.60;;;32.00;75.10;;;;;;5030114;28;20044;-58
2021/08/07 15:10:34;;;;;;;4.72;2.33;;;32.20;74.90;;;;;;5029808;28;20048;-59
2021/08/07 15:13:37;;;;;;;6.50;2.53;;;32.20;75.40;;;;;;5029977;28;20060;-59
2021/08/07 15:16:42;;;;;;;5.53;2.50;;;32.30;74.60;;;;;;5029888;28;20530;-57
2021/08/07 15:19:49;;;;;;;4.45;2.42;;;32.20;74.90;;;;;;5029501;28;20052;-58
2021/08/07 15:22:54;;;;;;;7.72;2.47;;;32.40;75.50;;;;;;5028787;28;20052;-61
2021/08/07 15:25:58;;;;;;;14.98;2.80;;;32.50;75.20;;;;;;5029627;28;20044;-58
2021/08/07 15:29:03;;;;;;;6.85;2.50;;;32.50;75.30;;;;;;5030060;28;20044;-60
2021/08/07 15:32:07;;;;;;;6.15;2.60;;;32.20;75.50;;;;;;5030110;28;20044;-60
2021/08/07 15:35:16;;;;;;;8.00;2.50;;;31.90;76.70;;;;;;5029715;28;20045;-60
2021/08/07 15:38:21;;;;;;;7.25;2.45;;;32.20;75.90;;;;;;5028790;28;20562;-57
2021/08/07 15:41:26;;;;;;;10.52;2.83;;;32.20;75.60;;;;;;5029765;28;20064;-57
2021/08/07 15:44:32;;;;;;;7.22;2.90;;;32.20;75.00;;;;;;5029086;28;20041;-58
2021/08/07 15:47:38;;;;;;;8.05;2.80;;;31.90;75.30;;;;;;5030196;28;20050;-56
2021/08/07 15:50:42;;;;;;;9.32;2.58;;;31.90;74.80;;;;;;5029797;28;20038;-57
2021/08/07 15:53:47;;;;;;;8.02;3.03;;;32.00;74.70;;;;;;5029750;28;20029;-57
2021/08/07 15:56:51;;;;;;;5.15;2.28;;;31.70;74.80;;;;;;5029711;28;20048;-56
2021/08/07 15:59:55;;;;;;;9.07;2.80;;;31.70;75.50;;;;;;5029511;28;20041;-58
2021/08/07 16:03:00;;;;;;;6.50;2.78;;;31.60;76.70;;;;;;5030163;28;20400;-57
2021/08/07 16:06:04;;;;;;;5.53;2.35;;;31.70;75.70;;;;;;5030119;28;20057;-56
2021/08/07 16:09:09;;;;;;;4.93;2.58;;;31.70;76.30;;;;;;5010238;28;20041;-58
2021/08/07 16:12:14;;;;;;;5.72;2.42;;;31.20;76.80;;;;;;5010454;28;20041;-59
2021/08/07 16:15:19;;;;;;;3.90;2.10;;;31.30;76.30;;;;;;5009093;28;20053;-58
2021/08/07 16:18:23;;;;;;;5.15;2.63;;;31.40;76.20;;;;;;5014233;28;20041;-58
2021/08/07 16:21:28;;;;;;;5.25;2.17;;;31.30;76.30;;;;;;5013962;28;20022;-55